createdAt,value
2022-11-24T00:01:03.071Z,28.85
2022-11-24T00:04:07.953Z,28.80
2022-11-24T00:07:10.451Z,28.53
2022-11-24T00:10:13.766Z,29.63
2022-11-24T00:13:16.189Z,29.00
2022-11-24T00:16:20.442Z,30.00
2022-11-24T00:19:24.342Z,26.92
2022-11-24T00:22:26.824Z,31.37
2022-11-24T00:25:29.247Z,30.27
2022-11-24T00:28:32.981Z,30.15
2022-11-24T00:31:37.236Z,29.60
2022-11-24T00:34:42.015Z,34.22
2022-11-24T00:37:44.455Z,32.87
2022-11-24T00:40:49.046Z,30.95
2022-11-24T00:43:52.074Z,34.15
2022-11-24T00:46:54.591Z,31.33
2022-11-24T00:49:58.399Z,30.17
2022-11-24T00:53:01.480Z,33.23
2022-11-24T00:56:04.175Z,29.00
2022-11-24T00:59:06.742Z,31.75
2022-11-24T01:02:09.212Z,27.85
2022-11-24T01:05:13.215Z,29.08
2022-11-24T01:08:15.663Z,31.47
2022-11-24T01:11:20.860Z,26.02
2022-11-24T01:14:24.804Z,27.60
2022-11-24T01:17:27.544Z,31.27
2022-11-24T01:20:32.018Z,25.23
2022-11-24T01:23:34.471Z,24.87
2022-11-24T01:26:37.701Z,23.98
2022-11-24T01:29:40.221Z,23.35
2022-11-24T01:32:42.648Z,23.80
2022-11-24T01:35:46.471Z,23.67
2022-11-24T01:38:49.389Z,21.17
2022-11-24T01:41:52.866Z,24.77
2022-11-24T01:45:28.726Z,22.73
2022-11-24T01:48:38.703Z,22.65
2022-11-24T01:51:48.794Z,20.90
2022-11-24T01:54:55.655Z,22.83
2022-11-24T01:58:03.076Z,22.65
2022-11-24T02:01:05.990Z,24.48
2022-11-24T02:04:13.938Z,23.80
2022-11-24T02:07:18.527Z,25.35
2022-11-24T02:10:21.947Z,25.00
2022-11-24T02:13:25.146Z,28.40
2022-11-24T02:16:27.682Z,28.13
2022-11-24T02:19:43.024Z,29.92
2022-11-24T02:22:53.703Z,28.67
2022-11-24T02:26:07.802Z,26.03
2022-11-24T02:29:13.022Z,27.10
2022-11-24T02:32:16.455Z,29.08
2022-11-24T02:35:19.308Z,27.25
2022-11-24T02:38:30.033Z,28.38
2022-11-24T02:41:32.628Z,30.53
2022-11-24T02:44:40.737Z,33.00
2022-11-24T02:47:43.781Z,27.88
2022-11-24T02:50:46.316Z,33.20
2022-11-24T02:53:48.776Z,33.33
2022-11-24T02:56:51.359Z,26.57
2022-11-24T02:59:55.203Z,34.05
2022-11-24T03:02:58.038Z,31.88
2022-11-24T03:06:00.494Z,29.20
2022-11-24T03:09:03.067Z,26.63
2022-11-24T03:12:06.230Z,28.93
2022-11-24T03:15:11.283Z,27.60
2022-11-24T03:18:13.771Z,25.58
2022-11-24T03:21:16.220Z,24.75
2022-11-24T03:24:18.978Z,26.02
2022-11-24T03:27:21.428Z,27.23
2022-11-24T03:30:25.257Z,25.98
2022-11-24T03:33:27.880Z,28.15
2022-11-24T03:36:30.307Z,26.40
2022-11-24T03:39:32.991Z,26.95
2022-11-24T03:42:35.377Z,26.57
2022-11-24T03:45:45.827Z,23.60
2022-11-24T03:48:48.623Z,22.15
2022-11-24T03:51:51.055Z,22.38
2022-11-24T03:54:53.710Z,22.33
2022-11-24T03:57:56.159Z,22.93
2022-11-24T04:00:59.964Z,22.13
2022-11-24T04:04:03.516Z,20.27
2022-11-24T04:07:05.927Z,19.38
2022-11-24T04:10:08.689Z,18.45
2022-11-24T04:13:13.063Z,17.87
2022-11-24T04:16:16.845Z,14.68
2022-11-24T04:19:19.473Z,16.00
2022-11-24T04:22:22.072Z,14.15
2022-11-24T04:25:24.573Z,13.27
2022-11-24T04:28:27.082Z,13.10
2022-11-24T04:31:31.668Z,14.50
2022-11-24T04:34:34.556Z,12.35
2022-11-24T04:37:37.380Z,12.25
2022-11-24T04:40:39.919Z,13.43
2022-11-24T04:43:42.338Z,13.43
2022-11-24T04:46:46.460Z,11.63
2022-11-24T04:49:49.230Z,12.98
2022-11-24T04:52:52.565Z,12.23
2022-11-24T04:55:54.996Z,11.35
2022-11-24T04:58:57.502Z,12.13
2022-11-24T05:02:01.349Z,12.00
2022-11-24T05:05:04.418Z,12.60
2022-11-24T05:08:06.845Z,11.93
2022-11-24T05:11:09.543Z,14.65
2022-11-24T05:14:11.980Z,12.20
2022-11-24T05:17:15.732Z,12.20
2022-11-24T05:20:18.656Z,13.85
2022-11-24T05:23:21.218Z,14.32
2022-11-24T05:26:23.707Z,14.90
2022-11-24T05:29:26.139Z,17.80
2022-11-24T05:32:29.985Z,16.02
2022-11-24T05:35:32.663Z,15.13
2022-11-24T05:38:35.692Z,17.02
2022-11-24T05:41:38.438Z,15.60
2022-11-24T05:44:40.823Z,18.67
2022-11-24T05:47:45.128Z,20.25
2022-11-24T05:50:53.528Z,22.88
2022-11-24T05:53:56.187Z,23.83
2022-11-24T05:56:58.902Z,25.33
2022-11-24T06:00:02.253Z,25.50
2022-11-24T06:03:16.210Z,25.05
2022-11-24T06:06:18.706Z,29.70
2022-11-24T06:09:21.208Z,38.47
2022-11-24T06:12:23.702Z,34.90
2022-11-24T06:15:26.185Z,43.60
2022-11-24T06:18:30.015Z,50.95
2022-11-24T06:21:32.576Z,52.17
2022-11-24T06:24:35.187Z,50.28
2022-11-24T06:27:37.777Z,48.92
2022-11-24T06:30:40.290Z,55.73
2022-11-24T06:33:44.385Z,58.65
2022-11-24T06:36:47.070Z,52.75
2022-11-24T06:39:49.584Z,58.28
2022-11-24T06:42:52.707Z,61.75
2022-11-24T06:45:55.480Z,60.10
2022-11-24T06:49:02.525Z,55.80
2022-11-24T06:52:05.224Z,59.25
2022-11-24T06:55:09.783Z,63.15
2022-11-24T06:58:12.391Z,56.90
2022-11-24T07:01:33.555Z,56.93
2022-11-24T07:04:37.667Z,62.55
2022-11-24T07:07:41.015Z,56.67
2022-11-24T07:10:43.605Z,61.55
2022-11-24T07:13:56.679Z,58.75
2022-11-24T07:21:18.239Z,64.82
2022-11-24T07:24:27.095Z,59.83
2022-11-24T07:32:05.066Z,61.53
2022-11-24T07:36:23.630Z,54.30
2022-11-24T07:39:26.004Z,54.42
2022-11-24T07:42:31.168Z,60.97
2022-11-24T07:45:33.750Z,63.75
2022-11-24T07:48:36.487Z,62.38
2022-11-24T07:51:39.183Z,61.37
2022-11-24T07:54:42.995Z,62.53
2022-11-24T07:57:45.493Z,65.07
2022-11-24T08:00:56.572Z,65.65
2022-11-24T08:04:01.420Z,61.58
2022-11-24T08:07:05.689Z,64.03
2022-11-24T08:10:10.260Z,67.00
2022-11-24T08:13:12.765Z,68.85
2022-11-24T08:16:17.495Z,66.72
2022-11-24T08:19:21.693Z,59.60
2022-11-24T08:22:24.433Z,58.30
2022-11-24T08:25:32.554Z,53.45
2022-11-24T08:28:35.842Z,54.92
2022-11-24T08:31:39.171Z,60.53
2022-11-24T08:34:41.737Z,60.38
2022-11-24T08:37:44.365Z,62.10
2022-11-24T08:40:48.381Z,66.80
2022-11-24T08:43:51.227Z,68.10
2022-11-24T08:46:54.136Z,66.20
2022-11-24T08:49:56.731Z,69.35
2022-11-24T08:52:59.273Z,68.23
2022-11-24T08:56:04.372Z,64.15
2022-11-24T08:59:06.947Z,61.03
2022-11-24T09:02:15.422Z,69.00
2022-11-24T09:05:49.999Z,60.88
2022-11-24T09:08:40.745Z,58.67
2022-11-24T09:11:46.623Z,63.95
2022-11-24T09:14:52.201Z,62.42
2022-11-24T09:17:54.983Z,63.88
2022-11-24T09:21:06.927Z,61.80
2022-11-24T09:24:10.736Z,60.27
2022-11-24T09:27:14.734Z,57.47
2022-11-24T09:30:18.527Z,53.72
2022-11-24T09:33:21.853Z,58.65
2022-11-24T09:36:25.473Z,52.95
2022-11-24T09:39:27.955Z,57.97
2022-11-24T09:42:39.757Z,55.60
2022-11-24T09:46:04.906Z,52.25
2022-11-24T09:49:15.488Z,52.38
2022-11-24T09:52:22.391Z,52.05
2022-11-24T09:55:35.480Z,50.67
2022-11-24T09:58:45.258Z,53.72
2022-11-24T10:01:49.866Z,51.05
2022-11-24T10:04:54.776Z,53.03
2022-11-24T10:08:09.383Z,52.08
2022-11-24T10:11:18.834Z,56.50
2022-11-24T10:14:46.076Z,56.05
2022-11-24T10:18:09.360Z,54.85
2022-11-24T10:21:34.815Z,52.38
2022-11-24T10:25:03.171Z,48.38
2022-11-24T10:28:12.499Z,53.60
2022-11-24T10:31:29.642Z,49.90
2022-11-24T10:34:35.291Z,50.45
2022-11-24T10:37:45.820Z,57.90
2022-11-24T10:40:59.612Z,46.53
2022-11-24T10:44:04.892Z,54.00
2022-11-24T10:47:18.034Z,51.78
2022-11-24T10:50:25.277Z,52.35
2022-11-24T10:53:48.305Z,52.53
2022-11-24T10:56:53.068Z,51.75
2022-11-24T10:59:56.436Z,53.17
2022-11-24T11:03:17.459Z,59.38
2022-11-24T11:06:22.816Z,58.88
2022-11-24T11:09:25.423Z,52.20
2022-11-24T11:12:45.714Z,55.20
2022-11-24T11:15:48.471Z,55.33
2022-11-24T11:18:53.055Z,62.45
2022-11-24T11:22:01.222Z,54.05
2022-11-24T11:25:18.725Z,60.58
2022-11-24T11:28:28.507Z,55.13
2022-11-24T11:31:34.401Z,45.53
2022-11-24T11:34:38.776Z,48.33
2022-11-24T11:37:42.287Z,49.08
2022-11-24T11:40:47.473Z,53.35
2022-11-24T11:43:57.474Z,58.28
2022-11-24T11:47:05.685Z,54.93
2022-11-24T11:50:16.172Z,49.58
2022-11-24T11:53:27.591Z,47.60
2022-11-24T11:56:33.291Z,48.65
2022-11-24T11:59:51.389Z,48.55
2022-11-24T12:03:19.521Z,52.77
2022-11-24T12:06:36.512Z,50.40
2022-11-24T12:09:56.447Z,49.50
2022-11-24T12:13:10.276Z,49.60
2022-11-24T12:16:25.210Z,45.10
2022-11-24T12:19:38.604Z,48.57
2022-11-24T12:22:49.841Z,47.50
2022-11-24T12:26:00.394Z,45.85
2022-11-24T12:29:24.010Z,52.10
2022-11-24T12:32:41.791Z,43.92
2022-11-24T12:35:46.567Z,43.83
2022-11-24T12:38:58.331Z,40.60
2022-11-24T12:42:09.911Z,46.42
2022-11-24T12:45:16.985Z,44.58
2022-11-24T12:48:32.670Z,40.97
2022-11-24T12:51:38.111Z,42.20
2022-11-24T12:54:42.200Z,38.60
2022-11-24T12:57:52.048Z,38.55
2022-11-24T13:01:14.676Z,41.03
2022-11-24T13:04:32.964Z,40.53
2022-11-24T13:07:42.871Z,39.97
2022-11-24T13:10:57.211Z,37.35
2022-11-24T13:14:04.696Z,33.85
2022-11-24T13:17:41.996Z,42.08
2022-11-24T13:20:47.486Z,43.08
2022-11-24T13:23:56.650Z,33.47
2022-11-24T13:27:41.334Z,37.53
2022-11-24T13:31:07.361Z,36.45
2022-11-24T13:34:43.099Z,30.83
2022-11-24T13:37:51.455Z,32.78
2022-11-24T13:41:13.304Z,32.47
2022-11-24T13:44:25.498Z,33.05
2022-11-24T13:47:36.705Z,32.65
2022-11-24T13:51:17.302Z,31.45
2022-11-24T13:54:21.294Z,33.33
2022-11-24T13:57:34.083Z,29.07
2022-11-24T14:01:11.490Z,35.15
2022-11-24T14:04:34.974Z,35.00
2022-11-24T14:07:37.693Z,30.65
2022-11-24T14:10:43.044Z,32.92
2022-11-24T14:13:45.502Z,34.97
2022-11-24T14:16:49.311Z,34.00
2022-11-24T14:19:54.106Z,39.10
2022-11-24T14:22:56.624Z,36.50
2022-11-24T14:25:59.127Z,33.90
2022-11-24T14:29:07.085Z,31.57
2022-11-24T14:32:16.860Z,30.35
2022-11-24T14:35:22.779Z,32.03
2022-11-24T14:38:25.522Z,37.05
2022-11-24T14:41:28.507Z,38.70
2022-11-24T14:44:35.155Z,38.20
2022-11-24T14:47:45.181Z,34.53
2022-11-24T14:50:47.908Z,32.22
2022-11-24T14:53:53.110Z,26.02
2022-11-24T14:56:57.848Z,28.95
2022-11-24T15:00:17.134Z,39.83
2022-11-24T15:03:20.932Z,41.17
2022-11-24T15:06:23.750Z,37.60
2022-11-24T15:09:31.356Z,39.22
2022-11-24T15:12:40.738Z,32.97
2022-11-24T15:15:48.367Z,30.37
2022-11-24T15:18:59.225Z,32.13
2022-11-24T15:22:26.841Z,36.45
2022-11-24T15:25:32.469Z,34.00
2022-11-24T15:28:37.766Z,32.03
2022-11-24T15:31:44.192Z,50.27
2022-11-24T15:34:51.619Z,49.67
2022-11-24T15:37:54.148Z,42.53
2022-11-24T15:40:59.589Z,50.63
2022-11-24T15:44:02.080Z,45.88
2022-11-24T15:47:04.604Z,47.33
2022-11-24T15:50:09.928Z,43.10
2022-11-24T15:53:18.216Z,37.67
2022-11-24T15:56:24.376Z,37.95
2022-11-24T15:59:27.044Z,32.25
2022-11-24T16:02:29.600Z,33.70
2022-11-24T16:05:33.719Z,40.70
2022-11-24T16:08:36.110Z,46.58
2022-11-24T16:11:38.748Z,43.75
2022-11-24T16:14:41.309Z,35.40
2022-11-24T16:17:43.803Z,32.97
2022-11-24T16:20:47.746Z,31.05
2022-11-24T16:23:50.264Z,29.70
2022-11-24T16:26:52.758Z,31.42
2022-11-24T16:29:55.247Z,28.25
2022-11-24T16:32:57.725Z,30.37
2022-11-24T16:36:01.516Z,33.85
2022-11-24T16:39:04.240Z,28.17
2022-11-24T16:42:06.939Z,28.90
2022-11-24T16:45:11.732Z,37.80
2022-11-24T16:48:14.223Z,32.93
2022-11-24T16:51:19.599Z,30.50
2022-11-24T16:54:22.239Z,32.20
2022-11-24T16:57:24.656Z,29.63
2022-11-24T17:00:27.392Z,33.60
2022-11-24T17:03:30.695Z,42.13
2022-11-24T17:06:35.127Z,39.65
2022-11-24T17:09:40.756Z,34.90
2022-11-24T17:12:44.837Z,37.70
2022-11-24T17:15:52.553Z,34.92
2022-11-24T17:18:58.589Z,33.93
2022-11-24T17:22:02.651Z,37.63
2022-11-24T17:25:06.283Z,36.50
2022-11-24T17:28:08.863Z,38.92
2022-11-24T17:31:18.149Z,49.33
2022-11-24T17:34:21.088Z,47.60
2022-11-24T17:37:25.015Z,54.05
2022-11-24T17:40:29.425Z,60.10
2022-11-24T17:43:32.687Z,49.05
2022-11-24T17:46:37.079Z,30.17
2022-11-24T17:49:40.351Z,38.83
2022-11-24T17:52:44.206Z,40.83
2022-11-24T17:55:46.860Z,44.80
2022-11-24T17:58:54.213Z,36.90
2022-11-24T18:01:58.082Z,28.70
2022-11-24T18:05:00.648Z,32.13
2022-11-24T18:08:05.079Z,31.33
2022-11-24T18:11:09.612Z,27.15
2022-11-24T18:14:12.745Z,32.15
2022-11-24T18:17:15.534Z,31.02
2022-11-24T18:20:19.419Z,31.87
2022-11-24T18:23:24.227Z,28.88
2022-11-24T18:26:26.900Z,36.05
2022-11-24T18:29:31.645Z,62.22
2022-11-24T18:32:34.230Z,43.38
2022-11-24T18:35:39.629Z,30.60
2022-11-24T18:38:44.449Z,27.45
2022-11-24T18:41:47.236Z,30.88
2022-11-24T18:44:53.973Z,25.17
2022-11-24T18:47:56.971Z,26.05
2022-11-24T18:50:59.495Z,29.80
2022-11-24T18:54:05.342Z,30.40
2022-11-24T18:57:08.228Z,32.45
2022-11-24T19:00:12.464Z,26.60
2022-11-24T19:03:15.185Z,26.65
2022-11-24T19:06:20.185Z,28.47
2022-11-24T19:09:25.513Z,26.35
2022-11-24T19:12:28.361Z,29.48
2022-11-24T19:15:32.901Z,30.73
2022-11-24T19:18:35.655Z,36.90
2022-11-24T19:21:40.424Z,65.00
2022-11-24T19:24:46.549Z,45.53
2022-11-24T19:27:49.371Z,34.05
2022-11-24T19:30:52.068Z,40.72
2022-11-24T19:33:57.924Z,38.47
2022-11-24T19:37:00.637Z,29.20
2022-11-24T19:40:06.396Z,26.58
2022-11-24T19:43:09.102Z,29.38
2022-11-24T19:46:14.310Z,31.55
2022-11-24T19:49:16.824Z,31.55
2022-11-24T19:52:19.822Z,35.50
2022-11-24T19:55:23.871Z,33.47
2022-11-24T19:58:26.450Z,30.77
2022-11-24T20:01:31.597Z,24.13
2022-11-24T20:04:38.280Z,19.58
2022-11-24T20:07:41.106Z,25.10
2022-11-24T20:10:45.408Z,24.58
2022-11-24T20:13:49.760Z,22.35
2022-11-24T20:16:52.238Z,28.85
2022-11-24T20:19:54.989Z,24.67
2022-11-24T20:22:57.600Z,23.00
2022-11-24T20:26:05.530Z,26.55
2022-11-24T20:29:13.011Z,25.73
2022-11-24T20:32:19.491Z,26.20
2022-11-24T20:35:22.415Z,31.70
2022-11-24T20:38:24.894Z,39.33
2022-11-24T20:41:30.900Z,40.33
2022-11-24T20:44:33.741Z,31.73
2022-11-24T20:47:36.720Z,30.42
2022-11-24T20:50:39.470Z,29.83
2022-11-24T20:53:42.396Z,28.70
2022-11-24T20:56:47.815Z,28.95
2022-11-24T20:59:52.300Z,27.23
2022-11-24T21:02:57.640Z,28.05
2022-11-24T21:06:00.982Z,30.13
2022-11-24T21:09:04.944Z,32.33
2022-11-24T21:12:09.072Z,26.88
2022-11-24T21:15:11.638Z,29.15
2022-11-24T21:18:14.433Z,27.88
2022-11-24T21:21:19.572Z,27.45
2022-11-24T21:24:22.183Z,32.57
2022-11-24T21:27:27.082Z,33.00
2022-11-24T21:30:29.859Z,32.33
2022-11-24T21:33:32.897Z,30.55
2022-11-24T21:36:35.820Z,28.83
2022-11-24T21:39:38.307Z,22.77
2022-11-24T21:42:42.161Z,32.38
2022-11-24T21:45:44.609Z,28.75
2022-11-24T21:48:47.095Z,30.35
2022-11-24T21:51:55.172Z,30.05
2022-11-24T21:54:57.782Z,27.67
2022-11-24T21:58:01.557Z,27.80
2022-11-24T22:01:06.267Z,25.33
2022-11-24T22:04:09.490Z,23.25
2022-11-24T22:07:12.665Z,27.42
2022-11-24T22:10:15.377Z,23.23
2022-11-24T22:13:19.450Z,26.25
2022-11-24T22:16:24.734Z,25.45
2022-11-24T22:19:27.267Z,26.52
2022-11-24T22:22:29.703Z,23.25
2022-11-24T22:25:33.478Z,26.33
2022-11-24T22:28:37.872Z,26.83
2022-11-24T22:31:40.368Z,26.17
2022-11-24T22:34:42.866Z,28.90
2022-11-24T22:37:45.332Z,29.13
2022-11-24T22:40:47.943Z,33.00
2022-11-24T22:43:52.143Z,34.47
2022-11-24T22:46:54.534Z,31.48
2022-11-24T22:49:58.047Z,27.92
2022-11-24T22:53:00.423Z,29.27
2022-11-24T22:56:03.874Z,32.27
2022-11-24T22:59:07.878Z,35.17
2022-11-24T23:02:10.289Z,31.55
2022-11-24T23:05:16.738Z,26.15
2022-11-24T23:08:21.831Z,40.80
2022-11-24T23:11:31.656Z,38.77
2022-11-24T23:14:36.849Z,38.20
2022-11-24T23:17:39.524Z,37.30
2022-11-24T23:20:41.919Z,33.17
2022-11-24T23:23:44.925Z,30.83
2022-11-24T23:26:47.347Z,36.93
2022-11-24T23:29:51.556Z,36.10
2022-11-24T23:32:55.863Z,39.20
2022-11-24T23:36:01.085Z,28.13
2022-11-24T23:39:04.532Z,28.73
2022-11-24T23:42:06.986Z,32.80
2022-11-24T23:45:11.230Z,30.25
2022-11-24T23:48:13.636Z,30.08
2022-11-24T23:51:18.149Z,28.33
2022-11-24T23:54:21.338Z,30.13
2022-11-24T23:57:23.844Z,34.30
